createdAt,value
2018-04-02T00:00:42.844Z,32.4
2018-04-02T00:01:31.401Z,31.9
2018-04-02T00:02:21.923Z,31.3
2018-04-02T00:03:13.254Z,30.8
2018-04-02T00:04:02.936Z,30.2
2018-04-02T00:04:53.664Z,29.8
2018-04-02T00:05:41.844Z,29.9
2018-04-02T00:06:33.021Z,29.7
2018-04-02T00:07:21.738Z,29.4
2018-04-02T00:08:13.425Z,29.2
2018-04-02T00:09:03.044Z,29.1
2018-04-02T00:09:54.031Z,28.9
2018-04-02T00:10:44.186Z,28.8
2018-04-02T00:11:33.983Z,28.7
2018-04-02T00:12:24.168Z,28.6
2018-04-02T00:13:14.253Z,28.6
2018-04-02T00:14:03.877Z,28.4
2018-04-02T00:14:53.208Z,28.3
2018-04-02T00:15:43.638Z,29.4
2018-04-02T00:16:34.265Z,30.4
2018-04-02T00:17:24.677Z,31.1
2018-04-02T00:18:14.339Z,31.8
2018-04-02T00:19:03.528Z,32.3
2018-04-02T00:19:54.110Z,32.7
2018-04-02T00:20:43.776Z,33.1
2018-04-02T00:21:33.910Z,33.4
2018-04-02T00:22:24.890Z,33.8
2018-04-02T00:23:15.033Z,34
2018-04-02T00:24:04.790Z,34.3
2018-04-02T00:24:54.404Z,34.5
2018-04-02T00:25:44.742Z,34.8
2018-04-02T00:26:34.355Z,34.9
2018-04-02T00:27:24.053Z,35.1
2018-04-02T00:28:14.997Z,35.3
2018-04-02T00:29:05.173Z,35.4
2018-04-02T00:29:54.757Z,35.6
2018-04-02T00:30:43.958Z,35.7
2018-04-02T00:31:35.456Z,35.8
2018-04-02T00:32:24.925Z,35.5
2018-04-02T00:33:15.192Z,34.9
2018-04-02T00:34:05.632Z,34.4
2018-04-02T00:34:55.399Z,33.9
2018-04-02T00:35:46.388Z,33.3
2018-04-02T00:36:36.158Z,32.8
2018-04-02T00:37:27.074Z,32.2
2018-04-02T00:38:17.118Z,31.6
2018-04-02T00:39:07.569Z,31.1
2018-04-02T00:39:56.559Z,30.6
2018-04-02T00:40:46.476Z,30.1
2018-04-02T00:41:36.349Z,29.7
2018-04-02T00:42:26.729Z,29.9
2018-04-02T00:43:17.039Z,29.6
2018-04-02T00:44:07.109Z,29.3
2018-04-02T00:44:56.862Z,29.1
2018-04-02T00:45:47.059Z,29
2018-04-02T00:46:37.598Z,28.9
2018-04-02T00:47:27.834Z,28.8
2018-04-02T00:48:17.616Z,28.6
2018-04-02T00:49:07.963Z,28.5
2018-04-02T00:49:57.390Z,28.4
2018-04-02T00:50:48.394Z,28.4
2018-04-02T00:51:37.609Z,28.3
2018-04-02T00:52:27.846Z,28.6
2018-04-02T00:53:18.238Z,29.9
2018-04-02T00:54:08.120Z,30.8
2018-04-02T00:54:58.664Z,31.4
2018-04-02T00:55:47.866Z,32
2018-04-02T00:56:38.424Z,32.5
2018-04-02T00:57:26.302Z,32.9
2018-04-02T00:58:17.313Z,33.3
2018-04-02T00:59:08.155Z,33.6
2018-04-02T00:59:57.666Z,33.9
2018-04-02T01:00:47.473Z,34.2
2018-04-02T01:01:37.468Z,34.4
2018-04-02T01:02:26.984Z,34.7
2018-04-02T01:03:18.145Z,34.9
2018-04-02T01:04:06.708Z,35.1
2018-04-02T01:04:57.215Z,35.3
2018-04-02T01:05:47.404Z,35.4
2018-04-02T01:06:38.063Z,35.5
2018-04-02T01:07:27.013Z,35.6
2018-04-02T01:08:17.693Z,35.8
2018-04-02T01:09:07.605Z,35.9
2018-04-02T01:09:58.774Z,34.9
2018-04-02T01:10:48.873Z,34.5
2018-04-02T01:11:38.277Z,34
2018-04-02T01:12:29.332Z,33.4
2018-04-02T01:13:18.116Z,32.9
2018-04-02T01:14:07.832Z,32.4
2018-04-02T01:14:57.602Z,31.8
2018-04-02T01:15:49.277Z,31.3
2018-04-02T01:16:38.702Z,30.8
2018-04-02T01:17:28.285Z,30.3
2018-04-02T01:18:18.505Z,29.9
2018-04-02T01:19:08.807Z,29.5
2018-04-02T01:19:59.221Z,29.8
2018-04-02T01:20:48.648Z,29.5
2018-04-02T01:21:38.991Z,29.4
2018-04-02T01:22:29.821Z,29.3
2018-04-02T01:23:18.331Z,29.2
2018-04-02T01:24:07.964Z,29.1
2018-04-02T01:24:59.449Z,29
2018-04-02T01:25:49.665Z,28.9
2018-04-02T01:26:38.816Z,28.8
2018-04-02T01:27:28.740Z,28.8
2018-04-02T01:28:18.089Z,28.6
2018-04-02T01:29:08.867Z,28.6
2018-04-02T01:29:59.762Z,28.9
2018-04-02T01:30:49.629Z,30.2
2018-04-02T01:31:38.994Z,30.9
2018-04-02T01:32:30.088Z,31.6
2018-04-02T01:33:18.960Z,32.1
2018-04-02T01:34:08.624Z,32.6
2018-04-02T01:35:00.521Z,33
2018-04-02T01:35:50.239Z,33.4
2018-04-02T01:36:40.318Z,33.7
2018-04-02T01:37:29.438Z,33.9
2018-04-02T01:38:19.051Z,34.3
2018-04-02T01:39:09.631Z,34.4
2018-04-02T01:39:59.970Z,34.7
2018-04-02T01:40:50.787Z,34.8
2018-04-02T01:41:40.850Z,35.1
2018-04-02T01:42:30.999Z,35.3
2018-04-02T01:43:20.813Z,35.4
2018-04-02T01:44:10.413Z,35.5
2018-04-02T01:45:00.071Z,35.7
2018-04-02T01:45:50.715Z,35.8
2018-04-02T01:46:40.801Z,35.7
2018-04-02T01:47:30.171Z,34.9
2018-04-02T01:48:22.248Z,34.5
2018-04-02T01:49:12.289Z,33.9
2018-04-02T01:50:02.782Z,33.4
2018-04-02T01:50:52.183Z,32.8
2018-04-02T01:51:42.500Z,32.3
2018-04-02T01:52:32.780Z,31.8
2018-04-02T01:53:22.063Z,31.2
2018-04-02T01:54:11.605Z,30.7
2018-04-02T01:55:00.930Z,30.3
2018-04-02T01:55:52.028Z,29.9
2018-04-02T01:56:42.295Z,29.6
2018-04-02T01:57:30.212Z,29.8
2018-04-02T01:58:21.642Z,29.5
2018-04-02T01:59:10.473Z,29.3
2018-04-02T02:00:01.857Z,29.3
2018-04-02T02:00:50.240Z,29.1
2018-04-02T02:01:42.504Z,29
2018-04-02T02:02:31.412Z,28.9
2018-04-02T02:03:22.196Z,28.8
2018-04-02T02:04:11.443Z,28.8
2018-04-02T02:05:00.892Z,28.6
2018-04-02T02:05:50.532Z,28.6
2018-04-02T02:06:43.121Z,28.6
2018-04-02T02:07:31.994Z,28.3
2018-04-02T02:08:21.666Z,29.6
2018-04-02T02:09:11.754Z,30.6
2018-04-02T02:10:01.306Z,31.3
2018-04-02T02:10:53.039Z,31.9
2018-04-02T02:11:41.529Z,32.4
2018-04-02T02:12:32.226Z,32.8
2018-04-02T02:13:22.346Z,33.2
2018-04-02T02:14:12.114Z,33.6
2018-04-02T02:15:01.512Z,33.9
2018-04-02T02:15:52.608Z,34.1
2018-04-02T02:16:42.006Z,34.4
2018-04-02T02:17:32.303Z,34.6
2018-04-02T02:18:22.335Z,34.8
2018-04-02T02:19:12.651Z,35
2018-04-02T02:20:03.612Z,35.2
2018-04-02T02:20:54.049Z,35.4
2018-04-02T02:21:43.305Z,35.5
2018-04-02T02:22:33.592Z,35.6
2018-04-02T02:23:22.997Z,35.8
2018-04-02T02:24:12.580Z,35.9
2018-04-02T02:25:04.310Z,35.1
2018-04-02T02:25:54.463Z,34.6
2018-04-02T02:26:42.768Z,34.1
2018-04-02T02:27:33.543Z,33.6
2018-04-02T02:28:23.313Z,33
2018-04-02T02:29:13.027Z,32.4
2018-04-02T02:30:02.682Z,31.9
2018-04-02T02:30:53.556Z,31.4
2018-04-02T02:31:44.008Z,30.9
2018-04-02T02:32:33.159Z,30.4
2018-04-02T02:33:24.378Z,30
2018-04-02T02:34:14.102Z,29.9
2018-04-02T02:35:04.356Z,29.8
2018-04-02T02:35:53.235Z,29.6
2018-04-02T02:36:44.184Z,29.4
2018-04-02T02:37:34.902Z,29.3
2018-04-02T02:38:24.864Z,29.2
2018-04-02T02:39:13.482Z,29.1
2018-04-02T02:40:05.724Z,29
2018-04-02T02:40:54.489Z,28.9
2018-04-02T02:41:45.236Z,28.8
2018-04-02T02:42:34.349Z,28.8
2018-04-02T02:43:25.228Z,28.7
2018-04-02T02:44:15.281Z,28.6
2018-04-02T02:45:04.901Z,28.3
2018-04-02T02:45:55.200Z,29.4
2018-04-02T02:46:44.309Z,30.4
2018-04-02T02:47:36.326Z,31.2
2018-04-02T02:48:25.616Z,31.8
2018-04-02T02:49:14.722Z,32.3
2018-04-02T02:50:05.906Z,32.8
2018-04-02T02:50:57.136Z,33.1
2018-04-02T02:51:46.632Z,33.4
2018-04-02T02:52:37.589Z,33.3
2018-04-02T02:53:26.434Z,32.3
2018-04-02T02:54:17.342Z,30.4
2018-04-02T02:55:06.898Z,28.9
2018-04-02T02:55:56.388Z,26.8
2018-04-02T02:56:47.451Z,26.3
2018-04-02T02:57:37.579Z,26.3
2018-04-02T02:58:26.818Z,27.7
2018-04-02T02:59:17.151Z,29.3
2018-04-02T03:00:07.235Z,30.5
2018-04-02T03:00:57.534Z,31.4
2018-04-02T03:01:47.322Z,32.1
2018-04-02T03:02:36.671Z,32.7
2018-04-02T03:03:28.609Z,33.2
2018-04-02T03:04:17.196Z,33.6
2018-04-02T03:05:05.886Z,33.9
2018-04-02T03:05:55.727Z,34.3
2018-04-02T03:06:46.579Z,34.6
2018-04-02T03:07:36.398Z,34.8
2018-04-02T03:08:26.507Z,35.1
2018-04-02T03:09:16.672Z,35.3
2018-04-02T03:10:07.158Z,35.4
2018-04-02T03:10:55.254Z,35.6
2018-04-02T03:11:46.228Z,35.7
2018-04-02T03:12:35.113Z,35.9
2018-04-02T03:13:27.645Z,35.1
2018-04-02T03:14:17.380Z,34.6
2018-04-02T03:15:06.680Z,34.1
2018-04-02T03:15:57.723Z,33.6
2018-04-02T03:16:47.468Z,33
2018-04-02T03:17:37.195Z,32.5
2018-04-02T03:18:26.435Z,31.9
2018-04-02T03:19:15.895Z,31.4
2018-04-02T03:20:07.710Z,30.9
2018-04-02T03:20:57.663Z,30.4
2018-04-02T03:21:46.644Z,30.1
2018-04-02T03:22:38.507Z,29.7
2018-04-02T03:23:28.039Z,29.9
2018-04-02T03:24:18.549Z,29.8
2018-04-02T03:25:22.904Z,29.6
2018-04-02T03:25:57.209Z,29.4
2018-04-02T03:26:47.773Z,29.4
2018-04-02T03:27:37.132Z,29.3
2018-04-02T03:28:27.544Z,29.3
2018-04-02T03:29:17.683Z,29.1
2018-04-02T03:30:07.650Z,29.1
2018-04-02T03:30:57.970Z,29
2018-04-02T03:31:49.135Z,28.9
2018-04-02T03:32:38.257Z,28.8
2018-04-02T03:33:27.794Z,28.8
2018-04-02T03:34:17.584Z,28.8
2018-04-02T03:35:09.042Z,30.1
2018-04-02T03:35:59.286Z,30.9
2018-04-02T03:36:49.310Z,31.6
2018-04-02T03:37:39.051Z,32.2
2018-04-02T03:38:28.240Z,32.7
2018-04-02T03:39:18.398Z,33.1
2018-04-02T03:40:09.748Z,33.4
2018-04-02T03:40:58.859Z,33.8
2018-04-02T03:41:48.801Z,34.1
2018-04-02T03:42:38.071Z,34.4
2018-04-02T03:43:29.193Z,34.6
2018-04-02T03:44:19.661Z,34.9
2018-04-02T03:45:08.221Z,35.1
2018-04-02T03:45:59.131Z,35.3
2018-04-02T03:46:48.161Z,35.5
2018-04-02T03:47:38.315Z,35.6
2018-04-02T03:48:31.316Z,35.8
2018-04-02T03:49:20.468Z,35.9
2018-04-02T03:50:10.538Z,35.1
2018-04-02T03:51:00.885Z,34.7
2018-04-02T03:51:50.678Z,34.2
2018-04-02T03:52:41.288Z,33.6
2018-04-02T03:53:30.758Z,33.1
2018-04-02T03:54:21.720Z,32.6
2018-04-02T03:55:11.225Z,32
2018-04-02T03:56:01.540Z,31.4
2018-04-02T03:56:51.938Z,30.9
2018-04-02T03:57:42.268Z,30.5
2018-04-02T03:58:31.443Z,30.1
2018-04-02T03:59:20.147Z,29.8
2018-04-02T04:00:12.426Z,30.2
2018-04-02T04:01:01.304Z,30.3
2018-04-02T04:01:52.282Z,30.4
2018-04-02T04:02:41.161Z,30.4
2018-04-02T04:03:32.077Z,30.3
2018-04-02T04:04:21.822Z,30.3
2018-04-02T04:05:11.935Z,30.2
2018-04-02T04:06:01.420Z,30.1
2018-04-02T04:06:52.566Z,30
2018-04-02T04:07:40.712Z,29.9
2018-04-02T04:08:30.512Z,29.8
2018-04-02T04:09:20.302Z,29.7
2018-04-02T04:10:11.014Z,29.3
2018-04-02T04:11:01.674Z,29.9
2018-04-02T04:11:50.990Z,30.9
2018-04-02T04:12:41.835Z,31.6
2018-04-02T04:13:32.199Z,32.1
2018-04-02T04:14:21.443Z,32.6
2018-04-02T04:15:11.206Z,33
2018-04-02T04:16:01.091Z,33.4
2018-04-02T04:16:51.825Z,33.7
2018-04-02T04:17:42.312Z,34.1
2018-04-02T04:18:31.736Z,34.4
2018-04-02T04:19:22.067Z,34.6
2018-04-02T04:20:11.559Z,34.8
2018-04-02T04:21:00.773Z,35.1
2018-04-02T04:21:50.921Z,35.3
2018-04-02T04:22:41.434Z,35.4
2018-04-02T04:23:31.850Z,35.6
2018-04-02T04:24:22.121Z,35.8
2018-04-02T04:25:11.326Z,35.9
2018-04-02T04:26:01.328Z,35.1
2018-04-02T04:26:51.775Z,34.6
2018-04-02T04:27:43.441Z,34.1
2018-04-02T04:28:31.862Z,33.6
2018-04-02T04:29:21.665Z,33.1
2018-04-02T04:30:12.338Z,32.5
2018-04-02T04:31:02.148Z,32
2018-04-02T04:31:53.340Z,31.4
2018-04-02T04:32:42.193Z,30.9
2018-04-02T04:33:31.742Z,30.4
2018-04-02T04:34:22.823Z,30.1
2018-04-02T04:35:11.472Z,30.3
2018-04-02T04:36:02.155Z,30.4
2018-04-02T04:36:52.877Z,30.5
2018-04-02T04:37:42.257Z,30.5
2018-04-02T04:38:31.917Z,30.5
2018-04-02T04:39:22.823Z,30.4
2018-04-02T04:40:13.904Z,30.4
2018-04-02T04:41:03.295Z,30.3
2018-04-02T04:41:51.962Z,30.1
2018-04-02T04:42:43.888Z,30.1
2018-04-02T04:43:33.351Z,29.9
2018-04-02T04:44:23.214Z,29.8
2018-04-02T04:45:12.495Z,29.6
2018-04-02T04:46:03.947Z,29.4
2018-04-02T04:46:53.184Z,30.7
2018-04-02T04:47:43.296Z,31.4
2018-04-02T04:48:33.217Z,32
2018-04-02T04:49:24.002Z,32.5
2018-04-02T04:50:12.840Z,32.9
2018-04-02T04:51:04.164Z,33.3
2018-04-02T04:51:54.434Z,33.7
2018-04-02T04:52:44.002Z,34.1
2018-04-02T04:53:34.964Z,34.4
2018-04-02T04:54:24.024Z,34.6
2018-04-02T04:55:14.044Z,34.9
2018-04-02T04:56:04.163Z,35.1
2018-04-02T04:56:54.411Z,35.3
2018-04-02T04:57:44.785Z,35.5
2018-04-02T04:58:34.304Z,35.7
2018-04-02T04:59:24.306Z,35.9
2018-04-02T05:00:15.181Z,35.5
2018-04-02T05:01:04.983Z,34.9
2018-04-02T05:01:54.313Z,34.4
2018-04-02T05:02:45.505Z,33.9
2018-04-02T05:03:35.320Z,33.4
2018-04-02T05:04:24.899Z,32.8
2018-04-02T05:05:15.425Z,32.3
2018-04-02T05:06:05.033Z,31.8
2018-04-02T05:06:55.046Z,31.2
2018-04-02T05:07:45.348Z,30.7
2018-04-02T05:08:34.996Z,30.3
2018-04-02T05:09:26.409Z,29.9
2018-04-02T05:10:15.588Z,29.7
2018-04-02T05:11:04.670Z,29.5
2018-04-02T05:11:55.682Z,29.3
2018-04-02T05:12:46.322Z,29.2
2018-04-02T05:13:34.915Z,29.1
2018-04-02T05:14:25.934Z,28.9
2018-04-02T05:15:14.566Z,28.8
2018-04-02T05:16:06.386Z,28.8
2018-04-02T05:16:55.935Z,28.6
2018-04-02T05:17:45.448Z,28.5
2018-04-02T05:18:35.711Z,28.4
2018-04-02T05:19:26.167Z,28.3
2018-04-02T05:20:16.196Z,28.3
2018-04-02T05:21:06.589Z,28.1
2018-04-02T05:21:56.614Z,28.1
2018-04-02T05:22:46.172Z,27.9
2018-04-02T05:24:26.717Z,27.8
2018-04-02T05:25:15.893Z,27.7
2018-04-02T05:26:05.817Z,27.9
2018-04-02T05:26:57.302Z,28.8
2018-04-02T05:27:48.724Z,30.1
2018-04-02T05:28:38.239Z,31
2018-04-02T05:29:28.571Z,31.7
2018-04-02T05:30:18.631Z,32.3
2018-04-02T05:31:08.367Z,32.8
2018-04-02T05:31:57.741Z,33.1
2018-04-02T05:32:48.269Z,33.5
2018-04-02T05:33:37.800Z,33.9
2018-04-02T05:34:28.729Z,34.3
2018-04-02T05:35:19.048Z,34.5
2018-04-02T05:36:08.525Z,34.8
2018-04-02T05:36:58.596Z,35
2018-04-02T05:37:47.466Z,35.2
2018-04-02T05:38:39.270Z,35.4
2018-04-02T05:39:27.781Z,35.6
2018-04-02T05:40:17.339Z,35.8
2018-04-02T05:41:06.719Z,35.9
2018-04-02T05:41:56.942Z,35.1
2018-04-02T05:42:47.654Z,34.7
2018-04-02T05:43:37.893Z,34.1
2018-04-02T05:44:29.248Z,33.6
2018-04-02T05:45:17.546Z,33.1
2018-04-02T05:46:08.025Z,32.6
2018-04-02T05:46:57.847Z,32
2018-04-02T05:47:47.727Z,31.4
2018-04-02T05:48:37.282Z,30.9
2018-04-02T05:49:28.489Z,30.4
2018-04-02T05:50:18.177Z,30
2018-04-02T05:51:07.179Z,29.7
2018-04-02T05:51:59.382Z,29.4
2018-04-02T05:52:47.646Z,29.1
2018-04-02T05:53:38.614Z,28.9
2018-04-02T05:54:28.064Z,28.7
2018-04-02T05:55:18.459Z,28.4
2018-04-02T05:56:07.884Z,28.3
2018-04-02T05:56:58.904Z,28.2
2018-04-02T05:57:48.531Z,28.1
2018-04-02T05:58:38.798Z,28
2018-04-02T05:59:30.239Z,27.9
2018-04-02T06:01:09.019Z,27.7
2018-04-02T06:01:59.516Z,27.6
2018-04-02T06:02:49.386Z,27.5
2018-04-02T06:03:39.444Z,27.4
2018-04-02T06:04:30.203Z,27.4
2018-04-02T06:05:19.772Z,27.3
2018-04-02T06:06:09.548Z,27.1
2018-04-02T06:06:59.788Z,27.1
2018-04-02T06:07:49.441Z,27.4
2018-04-02T06:08:39.521Z,28.1
2018-04-02T06:09:29.203Z,29.5
2018-04-02T06:10:19.520Z,30.5
2018-04-02T06:11:10.290Z,31.4
2018-04-02T06:11:59.268Z,32.1
2018-04-02T06:12:48.861Z,32.6
2018-04-02T06:13:39.486Z,33.1
2018-04-02T06:14:29.443Z,33.5
2018-04-02T06:15:20.563Z,33.9
2018-04-02T06:16:09.753Z,34.3
2018-04-02T06:17:00.661Z,34.6
2018-04-02T06:17:49.493Z,34.9
2018-04-02T06:18:41.236Z,35.1
2018-04-02T06:19:29.969Z,35.3
2018-04-02T06:20:19.075Z,35.5
2018-04-02T06:21:10.015Z,35.8
2018-04-02T06:22:01.265Z,35.9
2018-04-02T06:22:49.945Z,35.7
2018-04-02T06:23:40.897Z,35
2018-04-02T06:24:31.762Z,34.5
2018-04-02T06:25:21.035Z,34
2018-04-02T06:26:11.410Z,33.4
2018-04-02T06:27:01.019Z,32.9
2018-04-02T06:27:51.106Z,32.4
2018-04-02T06:28:40.968Z,31.8
2018-04-02T06:29:30.739Z,31.3
2018-04-02T06:30:20.969Z,30.8
2018-04-02T06:31:11.840Z,30.3
2018-04-02T06:32:01.603Z,29.9
2018-04-02T06:32:50.492Z,29.6
2018-04-02T06:33:41.219Z,29.3
2018-04-02T06:34:31.665Z,29.1
2018-04-02T06:35:20.972Z,28.8
2018-04-02T06:36:11.197Z,28.6
2018-04-02T06:37:02.093Z,28.4
2018-04-02T06:37:52.125Z,28.3
2018-04-02T06:38:41.191Z,28.2
2018-04-02T06:39:31.801Z,28.1
2018-04-02T06:40:21.923Z,27.9
2018-04-02T06:41:10.903Z,27.9
2018-04-02T06:42:51.646Z,27.7
2018-04-02T06:43:41.606Z,27.6
2018-04-02T06:44:31.911Z,27.6
2018-04-02T06:45:21.971Z,27.4
2018-04-02T06:46:12.047Z,27.4
2018-04-02T06:47:02.431Z,27.3
2018-04-02T06:47:52.473Z,27.2
2018-04-02T06:48:43.711Z,27.1
2018-04-02T06:49:32.489Z,27.1
2018-04-02T06:50:23.193Z,26.9
2018-04-02T06:51:12.400Z,26.9
2018-04-02T06:52:02.962Z,26.8
2018-04-02T06:52:53.174Z,26.7
2018-04-02T06:53:42.568Z,26.6
2018-04-02T06:54:33.204Z,26.6
2018-04-02T06:55:23.455Z,26.5
2018-04-02T06:56:12.554Z,26.4
2018-04-02T06:57:02.932Z,26.3
2018-04-02T06:57:53.661Z,26.3
2018-04-02T06:58:43.313Z,26.2
2018-04-02T06:59:33.616Z,26.1
2018-04-02T07:00:23.366Z,26.1
2018-04-02T07:01:13.687Z,25.9
2018-04-02T07:02:03.777Z,25.9
2018-04-02T07:02:53.497Z,25.8
2018-04-02T07:03:42.980Z,25.8
2018-04-02T07:04:33.682Z,25.7
2018-04-02T07:05:23.865Z,25.6
2018-04-02T07:06:13.769Z,25.6
2018-04-02T07:07:03.465Z,25.5
2018-04-02T07:07:53.932Z,25.4
2018-04-02T07:08:43.829Z,25.4
2018-04-02T07:09:33.805Z,25.3
2018-04-02T07:10:24.834Z,25.3
2018-04-02T07:11:13.362Z,25.2
2018-04-02T07:12:03.579Z,25.1
2018-04-02T07:12:54.077Z,25.1
2018-04-02T07:13:43.689Z,25.1
2018-04-02T07:14:34.240Z,25
2018-04-02T07:15:25.012Z,25
2018-04-02T07:16:13.991Z,24.9
2018-04-02T07:17:03.484Z,24.9
2018-04-02T07:17:54.815Z,24.8
2018-04-02T07:18:45.057Z,24.8
2018-04-02T07:19:35.101Z,24.8
2018-04-02T07:20:24.772Z,24.7
2018-04-02T07:21:14.587Z,24.7
2018-04-02T07:22:03.509Z,24.6
2018-04-02T07:22:54.155Z,24.6
2018-04-02T07:23:45.787Z,24.6
2018-04-02T07:24:35.737Z,24.5
2018-04-02T07:25:25.342Z,24.4
2018-04-02T07:26:14.695Z,24.4
2018-04-02T07:27:05.345Z,24.4
2018-04-02T07:27:53.071Z,24.4
2018-04-02T07:28:45.382Z,24.3
2018-04-02T07:29:35.927Z,24.3
2018-04-02T07:30:24.631Z,24.3
2018-04-02T07:31:14.971Z,24.2
2018-04-02T07:32:05.507Z,24.2
2018-04-02T07:32:55.736Z,24.1
2018-04-02T07:33:45.301Z,24.1
2018-04-02T07:34:34.701Z,24.1
2018-04-02T07:35:25.195Z,24
2018-04-02T07:36:16.251Z,24
2018-04-02T07:37:05.910Z,23.9
2018-04-02T07:37:55.465Z,23.9
2018-04-02T07:38:46.956Z,23.9
2018-04-02T07:39:37.247Z,23.9
2018-04-02T07:40:25.328Z,23.8
2018-04-02T07:41:15.579Z,23.8
2018-04-02T07:42:06.801Z,23.8
2018-04-02T07:42:56.366Z,23.8
2018-04-02T07:43:46.758Z,23.8
2018-04-02T07:44:36.376Z,23.7
2018-04-02T07:45:26.996Z,23.7
2018-04-02T07:46:16.352Z,23.7
2018-04-02T07:47:07.104Z,23.6
2018-04-02T07:47:55.839Z,23.6
2018-04-02T07:48:47.037Z,23.6
2018-04-02T07:49:37.150Z,23.6
2018-04-02T07:50:27.375Z,23.6
2018-04-02T07:51:16.622Z,23.5
2018-04-02T07:52:06.544Z,23.5
2018-04-02T07:52:56.810Z,23.5
2018-04-02T07:53:46.473Z,23.4
2018-04-02T07:54:37.463Z,23.4
2018-04-02T07:55:27.289Z,23.4
2018-04-02T07:56:16.901Z,23.4
2018-04-02T07:57:08.360Z,23.4
2018-04-02T07:57:58.236Z,23.4
2018-04-02T07:58:47.244Z,23.3
2018-04-02T07:59:37.232Z,23.3
2018-04-02T08:00:28.140Z,23.3
2018-04-02T08:01:17.638Z,23.3
2018-04-02T08:02:07.695Z,23.3
2018-04-02T08:02:59.000Z,23.3
2018-04-02T08:03:48.187Z,23.3
2018-04-02T08:04:37.602Z,23.2
2018-04-02T08:05:28.486Z,23.2
2018-04-02T08:06:17.557Z,23.2
2018-04-02T08:07:08.277Z,23.2
2018-04-02T08:07:58.754Z,23.1
2018-04-02T08:08:48.804Z,23.1
2018-04-02T08:09:37.807Z,23.1
2018-04-02T08:10:27.859Z,23.1
2018-04-02T08:11:20.217Z,23.1
2018-04-02T08:12:08.710Z,23.1
2018-04-02T08:12:57.889Z,23.1
2018-04-02T08:13:48.644Z,23
2018-04-02T08:14:38.459Z,23
2018-04-02T08:15:28.633Z,23
2018-04-02T08:16:18.892Z,23
2018-04-02T08:17:07.965Z,22.9
2018-04-02T08:17:59.569Z,22.9
2018-04-02T08:18:48.381Z,22.9
2018-04-02T08:19:40.045Z,22.9
2018-04-02T08:20:29.480Z,22.8
2018-04-02T08:21:19.774Z,22.8
2018-04-02T08:22:09.716Z,22.8
2018-04-02T08:23:00.166Z,22.8
2018-04-02T08:23:49.226Z,22.7
2018-04-02T08:24:38.401Z,22.7
2018-04-02T08:25:29.925Z,22.7
2018-04-02T08:26:20.352Z,22.6
2018-04-02T08:27:09.787Z,22.6
2018-04-02T08:27:59.574Z,22.6
2018-04-02T08:28:49.761Z,22.6
2018-04-02T08:29:40.240Z,22.6
2018-04-02T08:30:28.965Z,22.6
2018-04-02T08:31:19.596Z,22.5
2018-04-02T08:32:10.026Z,22.5
2018-04-02T08:33:00.546Z,22.5
2018-04-02T08:33:51.153Z,22.4
2018-04-02T08:34:39.224Z,22.4
2018-04-02T08:35:30.321Z,22.4
2018-04-02T08:36:19.786Z,22.4
2018-04-02T08:37:10.752Z,22.4
2018-04-02T08:38:01.017Z,22.4
2018-04-02T08:38:52.038Z,22.3
2018-04-02T08:39:40.888Z,22.3
2018-04-02T08:40:30.984Z,22.3
2018-04-02T08:41:20.653Z,22.3
2018-04-02T08:42:11.311Z,22.3
2018-04-02T08:43:00.271Z,22.3
2018-04-02T08:43:49.811Z,22.3
2018-04-02T08:44:39.734Z,22.3
2018-04-02T08:45:30.409Z,22.2
2018-04-02T08:46:21.508Z,22.2
2018-04-02T08:47:10.826Z,22.2
2018-04-02T08:48:00.409Z,22.2
2018-04-02T08:48:51.186Z,22.1
2018-04-02T08:49:40.749Z,22.2
2018-04-02T08:50:30.719Z,22.1
2018-04-02T08:51:21.219Z,22.1
2018-04-02T08:52:10.517Z,22.1
2018-04-02T08:53:02.295Z,22.1
2018-04-02T08:53:51.736Z,22.1
2018-04-02T08:54:41.238Z,22.1
2018-04-02T08:55:31.748Z,22.1
2018-04-02T08:56:22.043Z,22.1
2018-04-02T08:57:12.821Z,22.1
2018-04-02T08:58:01.541Z,22.1
2018-04-02T08:58:50.922Z,22.1
2018-04-02T08:59:42.080Z,22.1
2018-04-02T09:00:31.272Z,22.1
2018-04-02T09:01:21.955Z,22.1
2018-04-02T09:02:11.835Z,22.1
2018-04-02T09:03:01.139Z,22
2018-04-02T09:03:52.167Z,22.1
2018-04-02T09:04:41.641Z,22
2018-04-02T09:05:32.818Z,22
2018-04-02T09:06:22.808Z,22
2018-04-02T09:07:12.676Z,22
2018-04-02T09:08:03.060Z,22
2018-04-02T09:08:52.485Z,22
2018-04-02T09:09:42.185Z,22
2018-04-02T09:10:32.477Z,22
2018-04-02T09:11:22.525Z,22
2018-04-02T09:12:13.106Z,21.9
2018-04-02T09:13:02.659Z,21.9
2018-04-02T09:13:53.519Z,21.9
2018-04-02T09:14:41.002Z,21.9
2018-04-02T09:15:33.797Z,21.9
2018-04-02T09:16:23.229Z,21.9
2018-04-02T09:17:12.866Z,21.9
2018-04-02T09:18:03.416Z,21.9
2018-04-02T09:18:53.635Z,21.9
2018-04-02T09:19:42.954Z,21.9
2018-04-02T09:20:33.272Z,21.9
2018-04-02T09:21:23.819Z,21.9
2018-04-02T09:22:12.999Z,21.9
2018-04-02T09:23:03.734Z,21.9
2018-04-02T09:23:54.124Z,21.9
2018-04-02T09:24:43.709Z,21.8
2018-04-02T09:25:33.382Z,21.8
2018-04-02T09:26:24.949Z,21.8
2018-04-02T09:27:13.491Z,21.8
2018-04-02T09:28:02.707Z,21.8
2018-04-02T09:28:52.233Z,21.8
2018-04-02T09:29:43.899Z,21.8
2018-04-02T09:30:34.130Z,21.8
2018-04-02T09:31:23.819Z,21.8
2018-04-02T09:32:13.572Z,21.8
2018-04-02T09:33:05.140Z,21.8
2018-04-02T09:33:54.457Z,21.8
2018-04-02T09:34:45.641Z,21.8
2018-04-02T09:35:34.985Z,21.8
2018-04-02T09:36:24.533Z,21.8
2018-04-02T09:37:15.045Z,21.8
2018-04-02T09:38:05.257Z,21.8
2018-04-02T09:38:55.407Z,21.8
2018-04-02T09:39:45.680Z,21.8
2018-04-02T09:40:35.347Z,21.8
2018-04-02T09:41:24.417Z,21.8
2018-04-02T09:42:16.005Z,21.8
2018-04-02T09:43:07.000Z,21.8
2018-04-02T09:43:56.767Z,21.7
2018-04-02T09:44:46.842Z,21.8
2018-04-02T09:45:36.379Z,21.8
2018-04-02T09:46:26.622Z,21.7
2018-04-02T09:47:17.268Z,21.7
2018-04-02T09:48:07.649Z,21.7
2018-04-02T09:48:57.684Z,21.7
2018-04-02T09:49:47.457Z,21.7
2018-04-02T09:50:37.500Z,21.7
2018-04-02T09:51:27.287Z,21.6
2018-04-02T09:52:17.902Z,21.7
2018-04-02T09:53:07.714Z,21.6
2018-04-02T09:53:57.487Z,21.7
2018-04-02T09:54:48.097Z,21.6
2018-04-02T09:55:37.602Z,21.6
2018-04-02T09:56:27.954Z,21.6
2018-04-02T09:57:18.299Z,21.6
2018-04-02T09:58:07.789Z,21.6
2018-04-02T09:58:57.801Z,21.6
2018-04-02T09:59:47.364Z,21.6
2018-04-02T10:00:38.587Z,21.6
2018-04-02T10:01:28.579Z,21.6
2018-04-02T10:02:18.366Z,21.6
2018-04-02T10:03:07.833Z,21.6
2018-04-02T10:03:58.181Z,21.6
2018-04-02T10:04:52.197Z,21.6
2018-04-02T10:05:37.184Z,21.6
2018-04-02T10:06:29.526Z,21.6
2018-04-02T10:07:18.507Z,21.6
2018-04-02T10:08:08.542Z,21.6
2018-04-02T10:08:58.828Z,21.6
2018-04-02T10:09:48.399Z,21.6
2018-04-02T10:10:38.942Z,21.6
2018-04-02T10:11:29.299Z,21.6
2018-04-02T10:12:18.577Z,21.6
2018-04-02T10:13:08.880Z,21.6
2018-04-02T10:13:59.000Z,21.6
2018-04-02T10:14:49.040Z,21.6
2018-04-02T10:15:39.677Z,21.6
2018-04-02T10:16:29.442Z,21.6
2018-04-02T10:17:18.888Z,21.6
2018-04-02T10:18:09.276Z,21.6
2018-04-02T10:18:59.276Z,21.6
2018-04-02T10:19:48.034Z,21.6
2018-04-02T10:20:37.733Z,21.6
2018-04-02T10:21:27.770Z,21.6
2018-04-02T10:22:17.695Z,21.6
2018-04-02T10:23:07.837Z,21.5
2018-04-02T10:23:59.228Z,21.5
2018-04-02T10:24:48.011Z,21.5
2018-04-02T10:25:37.412Z,21.5
2018-04-02T10:26:28.015Z,21.5
2018-04-02T10:27:18.275Z,21.5
2018-04-02T10:28:09.020Z,21.6
2018-04-02T10:28:58.525Z,21.5
2018-04-02T10:29:49.301Z,21.5
2018-04-02T10:30:37.567Z,21.5
2018-04-02T10:31:28.659Z,21.5
2018-04-02T10:32:18.292Z,21.5
2018-04-02T10:33:09.676Z,21.5
2018-04-02T10:33:59.382Z,21.5
2018-04-02T10:34:49.720Z,21.5
2018-04-02T10:35:38.486Z,21.5
2018-04-02T10:36:27.322Z,21.5
2018-04-02T10:37:18.678Z,21.5
2018-04-02T10:38:08.498Z,21.5
2018-04-02T10:38:59.208Z,21.4
2018-04-02T10:39:48.790Z,21.4
2018-04-02T10:40:39.394Z,21.5
2018-04-02T10:41:29.325Z,21.4
2018-04-02T10:42:19.190Z,21.4
2018-04-02T10:43:09.488Z,21.4
2018-04-02T10:43:58.945Z,21.4
2018-04-02T10:44:49.695Z,21.4
2018-04-02T10:45:38.184Z,21.4
2018-04-02T10:46:29.973Z,21.4
2018-04-02T10:47:19.391Z,21.4
2018-04-02T10:48:09.560Z,21.4
2018-04-02T10:49:00.256Z,21.4
2018-04-02T10:49:49.079Z,21.4
2018-04-02T10:50:39.898Z,21.4
2018-04-02T10:51:31.088Z,21.4
2018-04-02T10:52:20.890Z,21.4
2018-04-02T10:53:10.220Z,21.4
2018-04-02T10:54:00.236Z,21.4
2018-04-02T10:54:51.126Z,21.4
2018-04-02T10:55:39.874Z,21.4
2018-04-02T10:56:30.751Z,21.4
2018-04-02T10:57:20.132Z,21.4
2018-04-02T10:58:09.175Z,21.4
2018-04-02T10:59:01.208Z,21.4
2018-04-02T10:59:52.401Z,21.4
2018-04-02T11:00:39.912Z,21.4
2018-04-02T11:01:31.224Z,21.4
2018-04-02T11:02:20.811Z,21.4
2018-04-02T11:03:10.968Z,21.4
2018-04-02T11:04:01.233Z,21.4
2018-04-02T11:04:51.352Z,21.4
2018-04-02T11:05:42.092Z,21.4
2018-04-02T11:06:31.218Z,21.4
2018-04-02T11:07:19.683Z,21.4
2018-04-02T11:08:11.502Z,21.4
2018-04-02T11:09:00.910Z,21.4
2018-04-02T11:09:50.643Z,21.4
2018-04-02T11:10:41.815Z,21.4
2018-04-02T11:11:32.523Z,21.4